Time;durP1;ratioP1;P1;durP2;ratioP2;P2;SDS_P1;SDS_P2;PMS_P1;PMS_P2;Temp;Humidity;BMP_temperature;BMP_pressure;BME280_temperature;BME280_humidity;BME280_pressure;Samples;Min_cycle;Max_cycle;Signal;HPM_P1;HPM_P2
2022/06/05 00:02:23;;;;;;;11.35;7.63;;;15.20;99.90;;;;;;5011514;28;20034;-47
2022/06/05 00:05:13;;;;;;;10.18;7.38;;;15.20;99.90;;;;;;5011741;28;20045;-49
2022/06/05 00:07:44;;;;;;;10.97;8.67;;;15.10;99.90;;;;;;5011660;28;20398;-47
2022/06/05 00:10:09;;;;;;;;;;;15.10;99.90;;;;;;5011402;28;20029;-48
2022/06/05 00:12:46;;;;;;;10.93;8.32;;;15.00;99.90;;;;;;5011448;28;19906;-47
2022/06/05 00:15:11;;;;;;;11.13;8.15;;;15.00;99.90;;;;;;5028122;28;20048;-48
2022/06/05 00:17:37;;;;;;;10.27;7.90;;;15.00;99.90;;;;;;5009824;28;20391;-48
2022/06/05 00:20:04;;;;;;;12.20;8.30;;;14.90;99.90;;;;;;5010529;28;20033;-47
2022/06/05 00:22:30;;;;;;;11.68;8.68;;;14.80;99.90;;;;;;5010954;28;20028;-47
2022/06/05 00:24:55;;;;;;;10.88;8.18;;;14.80;99.90;;;;;;5011025;28;20030;-47
2022/06/05 00:27:43;;;;;;;12.63;8.35;;;14.80;99.90;;;;;;5010926;28;20025;-50
2022/06/05 00:30:26;;;;;;;11.45;8.38;;;14.70;99.90;;;;;;5010393;28;20038;-47
2022/06/05 00:33:08;;;;;;;14.38;8.85;;;14.70;99.90;;;;;;5009795;28;20398;-47
2022/06/05 00:35:51;;;;;;;13.32;7.72;;;14.70;99.90;;;;;;5010800;28;20044;-47
2022/06/05 00:38:29;;;;;;;13.68;8.90;;;14.60;99.90;;;;;;5009524;28;20030;-47
2022/06/05 00:41:26;;;;;;;12.35;8.80;;;14.60;99.90;;;;;;5009055;28;20030;-48
2022/06/05 00:43:54;;;;;;;11.10;8.98;;;14.60;99.90;;;;;;5018155;28;20115;-48
2022/06/05 00:46:23;;;;;;;13.30;9.38;;;14.60;99.90;;;;;;5020849;28;20018;-46
2022/06/05 00:48:49;;;;;;;10.15;8.02;;;14.50;99.90;;;;;;5010788;28;20033;-46
2022/06/05 00:51:14;;;;;;;13.13;8.48;;;14.50;99.90;;;;;;5009879;28;20037;-47
2022/06/05 00:53:40;;;;;;;10.73;8.40;;;14.50;99.90;;;;;;5010836;28;20399;-47
2022/06/05 00:56:10;;;;;;;12.18;9.02;;;14.40;99.90;;;;;;5010924;28;20065;-48
2022/06/05 00:58:36;;;;;;;11.48;8.68;;;14.40;99.90;;;;;;5009110;28;20084;-47
2022/06/05 01:01:02;;;;;;;12.50;8.18;;;14.40;99.90;;;;;;5009277;28;20033;-46
2022/06/05 01:03:28;;;;;;;11.52;8.90;;;14.30;99.90;;;;;;5009832;28;20065;-48
2022/06/05 01:05:54;;;;;;;11.30;9.13;;;14.30;99.90;;;;;;5009660;28;20068;-47
2022/06/05 01:08:21;;;;;;;14.05;10.13;;;14.30;99.90;;;;;;5009851;28;20575;-47
2022/06/05 01:11:14;;;;;;;11.32;9.27;;;14.20;99.90;;;;;;5007593;28;20025;-47
2022/06/05 01:14:07;;;;;;;13.05;9.00;;;14.20;99.90;;;;;;5015191;28;20040;-48
2022/06/05 01:17:02;;;;;;;12.60;9.15;;;14.10;99.90;;;;;;5021025;28;20179;-48
2022/06/05 01:19:42;;;;;;;11.98;8.90;;;14.10;99.90;;;;;;5029155;28;20061;-47
2022/06/05 01:22:21;;;;;;;11.07;9.02;;;14.00;99.90;;;;;;5029320;28;20026;-47
2022/06/05 01:25:23;;;;;;;11.70;8.35;;;14.00;99.90;;;;;;5029847;28;20022;-49
2022/06/05 01:27:54;;;;;;;12.05;9.23;;;13.90;99.90;;;;;;5028329;28;20032;-48
2022/06/05 01:30:23;;;;;;;10.77;9.15;;;13.90;99.90;;;;;;5029046;28;20090;-49
2022/06/05 01:33:07;;;;;;;11.57;8.35;;;13.90;99.90;;;;;;5029640;28;20026;-49
2022/06/05 01:35:48;;;;;;;11.60;9.18;;;13.80;99.90;;;;;;5029522;28;20156;-48
2022/06/05 01:38:18;;;;;;;11.15;8.75;;;13.80;99.90;;;;;;5029672;28;20026;-50
2022/06/05 01:40:48;;;;;;;15.43;9.27;;;13.70;99.90;;;;;;5028931;28;20112;-48
2022/06/05 01:43:20;;;;;;;12.68;8.60;;;13.70;99.90;;;;;;5029545;28;20030;-50
2022/06/05 01:46:03;;;;;;;11.73;8.98;;;13.60;99.90;;;;;;5022912;28;20056;-49
2022/06/05 01:48:38;;;;;;;10.40;8.18;;;13.60;99.90;;;;;;5009680;28;20026;-48
2022/06/05 01:51:08;;;;;;;14.32;9.45;;;13.60;99.90;;;;;;5007237;28;20023;-47
2022/06/05 01:53:39;;;;;;;13.43;9.77;;;13.60;99.90;;;;;;5027294;28;20449;-49
2022/06/05 01:56:15;;;;;;;13.65;10.05;;;13.50;99.90;;;;;;5029258;28;20394;-48
2022/06/05 01:58:45;;;;;;;13.85;9.70;;;13.50;99.90;;;;;;5029253;28;20021;-48
2022/06/05 02:01:15;;;;;;;13.10;9.60;;;13.50;99.90;;;;;;5027110;28;20022;-48
2022/06/05 02:03:46;;;;;;;14.52;9.95;;;13.50;99.90;;;;;;5028573;28;20279;-48
2022/06/05 02:06:17;;;;;;;12.50;8.98;;;13.50;99.90;;;;;;5029132;28;20033;-48
2022/06/05 02:08:58;;;;;;;11.95;9.63;;;13.40;99.90;;;;;;5029213;28;20017;-48
2022/06/05 02:11:30;;;;;;;14.93;8.75;;;13.40;99.90;;;;;;5027864;28;20017;-47
2022/06/05 02:14:00;;;;;;;14.55;9.13;;;13.30;99.90;;;;;;5026534;28;20041;-50
2022/06/05 02:16:28;;;;;;;12.90;9.35;;;13.30;99.90;;;;;;5027690;28;20264;-50
2022/06/05 02:18:54;;;;;;;11.15;8.77;;;13.30;99.90;;;;;;5026775;28;20030;-51
2022/06/05 02:21:20;;;;;;;13.25;9.50;;;13.30;99.90;;;;;;5027976;28;20032;-49
2022/06/05 02:23:46;;;;;;;12.48;9.15;;;13.20;99.90;;;;;;5027225;28;20446;-48
2022/06/05 02:26:12;;;;;;;13.27;9.55;;;13.20;99.90;;;;;;5028882;28;20017;-48
2022/06/05 02:28:38;;;;;;;12.43;8.75;;;13.20;99.90;;;;;;5028334;28;20080;-48
2022/06/05 02:31:23;;;;;;;10.00;8.57;;;13.10;99.90;;;;;;5027757;28;20108;-49
2022/06/05 02:34:18;;;;;;;9.93;8.68;;;13.10;99.90;;;;;;5025832;28;20464;-47
2022/06/05 02:36:49;;;;;;;11.93;8.25;;;13.10;99.90;;;;;;5026064;28;20044;-47
2022/06/05 02:39:42;;;;;;;10.25;8.02;;;13.10;99.90;;;;;;5027133;28;20034;-48
2022/06/05 02:42:34;;;;;;;11.32;7.97;;;13.10;99.90;;;;;;5028558;28;20393;-47
2022/06/05 02:45:24;;;;;;;12.82;9.15;;;13.10;99.90;;;;;;5028413;28;20623;-49
2022/06/05 02:47:56;;;;;;;12.25;9.07;;;13.00;99.90;;;;;;5009201;28;20033;-50
2022/06/05 02:50:47;;;;;;;10.65;8.60;;;13.00;99.90;;;;;;5008079;28;20156;-49
2022/06/05 02:53:13;;;;;;;11.65;9.27;;;13.00;99.90;;;;;;5007308;28;20471;-46
2022/06/05 02:55:39;;;;;;;11.82;9.10;;;13.10;99.90;;;;;;5009607;28;20033;-47
2022/06/05 02:58:06;;;;;;;11.07;8.80;;;13.00;99.90;;;;;;5012798;28;20033;-47
2022/06/05 03:00:35;;;;;;;10.35;8.30;;;13.00;99.90;;;;;;5012443;28;20396;-47
2022/06/05 03:05:45;;;;;;;12.07;8.15;;;12.90;99.90;;;;;;5012919;28;20521;-47
2022/06/05 03:08:13;;;;;;;14.30;9.25;;;12.90;99.90;;;;;;5012763;28;20026;-47
2022/06/05 03:10:41;;;;;;;12.57;8.70;;;12.90;99.90;;;;;;5012546;28;20030;-47
2022/06/05 03:13:07;;;;;;;12.05;9.30;;;12.90;99.90;;;;;;5013609;28;20109;-47
2022/06/05 03:15:33;;;;;;;13.15;8.80;;;12.90;99.90;;;;;;5032383;28;20172;-48
2022/06/05 03:17:59;;;;;;;12.38;8.18;;;12.80;99.90;;;;;;5032324;28;20034;-48
2022/06/05 03:20:25;;;;;;;11.25;8.90;;;12.80;99.90;;;;;;5031495;28;20130;-47
2022/06/05 03:22:51;;;;;;;12.15;8.23;;;12.80;99.90;;;;;;5030787;28;20032;-47
2022/06/05 03:25:20;;;;;;;11.23;8.55;;;12.80;99.90;;;;;;5030679;28;20033;-47
2022/06/05 03:27:46;;;;;;;11.73;9.13;;;12.80;99.90;;;;;;5012627;28;20037;-50
2022/06/05 03:30:13;;;;;;;10.02;8.32;;;12.80;99.90;;;;;;5010330;28;20029;-47
2022/06/05 03:32:39;;;;;;;11.43;8.50;;;12.70;99.90;;;;;;5012486;28;20030;-47
2022/06/05 03:35:05;;;;;;;15.48;8.50;;;12.70;99.90;;;;;;5012595;28;20181;-50
2022/06/05 03:37:31;;;;;;;9.93;7.70;;;12.70;99.90;;;;;;5011866;28;20038;-50
2022/06/05 03:39:56;;;;;;;11.88;8.57;;;12.70;99.90;;;;;;5011587;28;20386;-47
2022/06/05 03:42:23;;;;;;;10.32;7.78;;;12.70;99.90;;;;;;5012053;28;20025;-47
2022/06/05 03:44:48;;;;;;;10.18;8.35;;;12.70;99.90;;;;;;5012127;28;20034;-49
2022/06/05 03:47:14;;;;;;;10.30;7.70;;;12.70;99.90;;;;;;5010896;28;20084;-46
2022/06/05 03:49:39;;;;;;;9.52;8.15;;;12.80;99.90;;;;;;5011547;28;20036;-47
2022/06/05 03:52:07;;;;;;;11.02;8.25;;;12.70;99.90;;;;;;5011886;28;20057;-48
2022/06/05 03:54:33;;;;;;;13.05;8.77;;;12.80;99.90;;;;;;5030834;28;20029;-48
2022/06/05 03:57:00;;;;;;;10.95;8.23;;;12.70;99.90;;;;;;5016908;28;20018;-47
2022/06/05 03:59:25;;;;;;;10.57;7.90;;;12.80;99.90;;;;;;5011847;28;20372;-47
2022/06/05 04:01:51;;;;;;;9.43;7.53;;;12.80;99.90;;;;;;5010249;28;20113;-48
2022/06/05 04:04:16;;;;;;;14.55;8.13;;;12.80;99.90;;;;;;5010615;28;20391;-47
2022/06/05 04:06:42;;;;;;;11.13;7.30;;;12.80;99.90;;;;;;5012194;28;20053;-46
2022/06/05 04:09:08;;;;;;;11.25;8.40;;;12.80;99.90;;;;;;5011388;28;20459;-47
2022/06/05 04:11:36;;;;;;;9.93;8.30;;;12.90;99.90;;;;;;5009507;28;20030;-47
2022/06/05 04:14:02;;;;;;;10.00;7.95;;;12.90;99.90;;;;;;5011441;28;20153;-47
2022/06/05 04:16:30;;;;;;;8.90;7.40;;;12.90;99.90;;;;;;5014872;28;20080;-50
2022/06/05 04:18:58;;;;;;;11.15;7.60;;;12.90;99.90;;;;;;5031014;28;20080;-48
2022/06/05 04:21:27;;;;;;;12.13;7.40;;;12.90;99.90;;;;;;5029863;28;20022;-48
2022/06/05 04:23:54;;;;;;;9.32;6.72;;;13.00;99.90;;;;;;5026683;28;20287;-50
2022/06/05 04:26:23;;;;;;;10.82;8.20;;;13.00;99.90;;;;;;5028530;28;20029;-47
2022/06/05 04:28:49;;;;;;;11.98;8.00;;;13.00;99.90;;;;;;5013814;28;20372;-47
2022/06/05 04:31:17;;;;;;;13.35;8.63;;;13.00;99.90;;;;;;5010695;28;20144;-47
2022/06/05 04:33:43;;;;;;;11.65;7.95;;;13.00;99.90;;;;;;5024348;28;20134;-49
2022/06/05 04:36:08;;;;;;;8.43;6.70;;;13.10;99.90;;;;;;5014242;28;20324;-48
2022/06/05 04:38:34;;;;;;;10.35;7.80;;;13.10;99.90;;;;;;5011066;28;20021;-50
2022/06/05 04:40:59;;;;;;;10.25;7.68;;;13.10;99.90;;;;;;5010330;28;20037;-47
2022/06/05 04:43:25;;;;;;;10.30;7.28;;;13.10;99.90;;;;;;5011174;28;20034;-47
2022/06/05 04:45:50;;;;;;;9.35;7.65;;;13.20;99.90;;;;;;5028867;28;20033;-47
2022/06/05 04:48:16;;;;;;;11.27;7.85;;;13.20;99.90;;;;;;5030447;28;20072;-47
2022/06/05 04:50:41;;;;;;;10.13;8.00;;;13.20;99.90;;;;;;5029693;28;20022;-47
2022/06/05 04:53:07;;;;;;;9.68;7.25;;;13.30;99.90;;;;;;5030257;28;20049;-48
2022/06/05 04:55:35;;;;;;;10.30;7.47;;;13.30;99.90;;;;;;5030376;28;20043;-49
2022/06/05 04:58:01;;;;;;;9.77;7.53;;;13.30;99.90;;;;;;5030320;28;20034;-47
2022/06/05 05:00:26;;;;;;;10.32;7.93;;;13.40;99.90;;;;;;5029657;28;20134;-47
2022/06/05 05:02:52;;;;;;;9.95;8.18;;;13.50;99.90;;;;;;5028705;28;20411;-47
2022/06/05 05:05:17;;;;;;;9.70;8.00;;;13.40;99.90;;;;;;5020553;28;20691;-47
2022/06/05 05:07:43;;;;;;;9.77;7.88;;;13.50;99.90;;;;;;5010342;28;20022;-49
2022/06/05 05:10:09;;;;;;;9.00;7.80;;;13.50;99.90;;;;;;5010056;28;20030;-47
2022/06/05 05:12:34;;;;;;;16.80;8.45;;;13.50;99.90;;;;;;5010350;28;20447;-47
2022/06/05 05:15:00;;;;;;;14.70;7.70;;;13.60;99.90;;;;;;5010277;28;20038;-47
2022/06/05 05:17:25;;;;;;;8.35;7.45;;;13.70;99.90;;;;;;5010069;28;20071;-47
2022/06/05 05:19:52;;;;;;;9.77;7.40;;;13.70;99.90;;;;;;5009840;28;20045;-47
2022/06/05 05:22:17;;;;;;;11.48;7.47;;;13.80;99.90;;;;;;5010203;28;20032;-47
2022/06/05 05:24:43;;;;;;;9.57;7.13;;;13.80;99.90;;;;;;5010026;28;20380;-48
2022/06/05 05:27:09;;;;;;;12.18;7.60;;;13.80;99.90;;;;;;5010197;28;20482;-46
2022/06/05 05:29:35;;;;;;;12.95;6.07;;;13.90;99.90;;;;;;5009963;28;20426;-46
2022/06/05 05:32:00;;;;;;;11.30;7.25;;;14.00;99.90;;;;;;5009972;28;20033;-48
2022/06/05 05:34:25;;;;;;;8.88;7.30;;;14.00;99.90;;;;;;5026624;28;20033;-50
2022/06/05 05:36:51;;;;;;;9.45;7.22;;;14.10;99.90;;;;;;5009983;28;20388;-48
2022/06/05 05:42:08;;;;;;;9.10;6.53;;;14.20;99.90;;;;;;5010106;28;20080;-49
2022/06/05 05:44:41;;;;;;;8.52;6.15;;;14.30;99.90;;;;;;5008770;28;20084;-51
2022/06/05 05:47:10;;;;;;;8.75;6.82;;;14.40;99.90;;;;;;5010139;28;20424;-49
2022/06/05 05:49:36;;;;;;;7.43;6.63;;;14.50;99.90;;;;;;5009261;28;20025;-49
2022/06/05 05:52:03;;;;;;;10.80;6.55;;;14.50;99.90;;;;;;5009708;28;20026;-50
2022/06/05 05:54:28;;;;;;;9.82;5.80;;;14.60;99.90;;;;;;5020391;28;20025;-47
2022/06/05 05:56:54;;;;;;;12.52;7.20;;;14.70;99.90;;;;;;5028054;28;20021;-49
2022/06/05 05:59:20;;;;;;;9.40;6.93;;;14.80;99.90;;;;;;5027921;28;20161;-48
2022/06/05 06:01:46;;;;;;;9.05;5.80;;;14.90;99.90;;;;;;5026917;28;20022;-49
2022/06/05 06:04:12;;;;;;;6.65;5.97;;;15.00;99.90;;;;;;5027977;28;20057;-48
2022/06/05 06:06:41;;;;;;;7.25;5.40;;;15.10;99.90;;;;;;5028033;28;20472;-47
2022/06/05 06:09:07;;;;;;;6.72;5.57;;;15.20;99.90;;;;;;5011288;28;20516;-49
2022/06/05 06:11:33;;;;;;;8.77;6.35;;;15.30;99.90;;;;;;5026027;28;20329;-48
2022/06/05 06:13:58;;;;;;;8.50;6.18;;;15.40;99.90;;;;;;5028045;28;20029;-48
2022/06/05 06:16:26;;;;;;;12.70;6.07;;;15.60;99.90;;;;;;5027883;28;20084;-47
2022/06/05 06:18:52;;;;;;;7.47;5.70;;;15.70;99.90;;;;;;5028053;28;20052;-47
2022/06/05 06:21:18;;;;;;;8.50;6.38;;;15.80;99.90;;;;;;5027184;28;20120;-48
2022/06/05 06:23:43;;;;;;;8.68;6.28;;;15.90;99.90;;;;;;5027857;28;20049;-47
2022/06/05 06:26:09;;;;;;;7.43;5.72;;;16.00;99.90;;;;;;5027451;28;20025;-47
2022/06/05 06:28:35;;;;;;;6.32;5.63;;;16.10;99.90;;;;;;5027838;28;20025;-47
2022/06/05 06:31:10;;;;;;;6.90;5.28;;;16.20;99.90;;;;;;5026806;28;20124;-47
2022/06/05 06:33:36;;;;;;;7.53;5.88;;;16.30;99.90;;;;;;5028121;28;20029;-48
2022/06/05 06:36:03;;;;;;;7.22;5.90;;;16.40;99.90;;;;;;5028052;28;20548;-48
2022/06/05 06:38:29;;;;;;;7.05;5.57;;;16.60;99.90;;;;;;5028266;28;20040;-48
2022/06/05 06:41:04;;;;;;;15.57;6.55;;;16.70;99.90;;;;;;5027337;28;20029;-48
2022/06/05 06:43:30;;;;;;;10.45;6.20;;;16.80;99.90;;;;;;5028410;28;20025;-48
2022/06/05 06:45:56;;;;;;;7.35;5.72;;;17.00;99.90;;;;;;5028503;28;20032;-48
2022/06/05 06:48:21;;;;;;;7.00;5.97;;;17.10;99.90;;;;;;5028629;28;20502;-50
2022/06/05 06:50:47;;;;;;;8.88;5.90;;;17.20;99.90;;;;;;5026450;28;20104;-48
2022/06/05 06:53:13;;;;;;;7.40;5.53;;;17.30;99.90;;;;;;5027780;28;20091;-48
2022/06/05 06:55:39;;;;;;;7.72;5.57;;;17.40;99.90;;;;;;5028313;28;20113;-49
2022/06/05 06:58:05;;;;;;;7.47;5.72;;;17.60;99.90;;;;;;5028274;28;20058;-47
2022/06/05 07:00:30;;;;;;;5.13;4.63;;;17.80;99.90;;;;;;5027065;28;20064;-48
2022/06/05 07:02:56;;;;;;;7.18;5.18;;;17.80;99.90;;;;;;5027679;28;20021;-48
2022/06/05 07:05:22;;;;;;;9.57;5.55;;;18.00;99.90;;;;;;5027940;28;20372;-51
2022/06/05 07:07:47;;;;;;;8.63;5.38;;;18.10;99.30;;;;;;5013138;28;20030;-48
2022/06/05 07:10:13;;;;;;;6.75;5.18;;;18.30;99.10;;;;;;5007482;28;20026;-49
2022/06/05 07:12:39;;;;;;;9.55;5.50;;;18.40;99.30;;;;;;5008210;28;20038;-48
2022/06/05 07:15:06;;;;;;;6.45;5.25;;;18.50;99.30;;;;;;5008441;28;20049;-52
2022/06/05 07:17:32;;;;;;;6.97;4.88;;;18.60;99.00;;;;;;5008896;28;20105;-49
2022/06/05 07:19:57;;;;;;;8.20;5.00;;;18.70;99.20;;;;;;5007898;28;20042;-48
2022/06/05 07:22:23;;;;;;;5.20;4.38;;;18.80;98.40;;;;;;5008311;28;20034;-48
2022/06/05 07:24:49;;;;;;;9.18;5.25;;;19.00;97.30;;;;;;5008326;28;20405;-48
2022/06/05 07:27:14;;;;;;;6.45;4.80;;;19.10;96.60;;;;;;5008364;28;20490;-51
2022/06/05 07:29:40;;;;;;;6.68;5.13;;;19.20;96.50;;;;;;5007865;28;20060;-48
2022/06/05 07:32:06;;;;;;;5.20;4.13;;;19.30;96.00;;;;;;5008645;28;20033;-49
2022/06/05 07:34:31;;;;;;;8.60;4.53;;;19.40;96.40;;;;;;5015454;28;20295;-49
2022/06/05 07:36:58;;;;;;;5.53;4.68;;;19.60;96.50;;;;;;5021490;28;20034;-49
2022/06/05 07:39:24;;;;;;;5.90;4.85;;;19.70;95.10;;;;;;5008081;28;20112;-51
2022/06/05 07:41:49;;;;;;;6.30;4.40;;;19.90;95.30;;;;;;5009931;28;20279;-51
2022/06/05 07:44:16;;;;;;;5.25;4.78;;;20.10;95.30;;;;;;5010499;28;20045;-49
2022/06/05 07:46:41;;;;;;;7.55;4.57;;;20.30;94.90;;;;;;5012013;28;20022;-51
2022/06/05 07:49:07;;;;;;;5.55;4.55;;;20.50;93.90;;;;;;5011899;28;20060;-49
2022/06/05 07:54:27;;;;;;;7.53;4.68;;;20.90;93.00;;;;;;5011664;28;20415;-49
2022/06/05 07:57:02;;;;;;;7.45;4.50;;;21.20;92.60;;;;;;5011466;28;20030;-51
2022/06/05 07:59:29;;;;;;;8.70;4.05;;;21.60;92.00;;;;;;5010330;28;20030;-48
2022/06/05 08:01:57;;;;;;;6.38;4.57;;;21.80;90.80;;;;;;5024197;28;20116;-49
2022/06/05 08:04:23;;;;;;;5.28;3.70;;;22.10;90.40;;;;;;5029545;28;20029;-48
2022/06/05 08:06:48;;;;;;;5.63;3.88;;;22.40;90.50;;;;;;5023918;28;20026;-49
2022/06/05 08:09:14;;;;;;;7.10;4.20;;;22.90;88.30;;;;;;5007746;28;20379;-48
2022/06/05 08:11:42;;;;;;;4.45;3.78;;;23.40;84.80;;;;;;5008744;28;20136;-51
2022/06/05 08:14:09;;;;;;;10.77;4.03;;;24.20;82.60;;;;;;5010291;28;20411;-51
2022/06/05 08:16:35;;;;;;;5.55;3.50;;;25.00;79.50;;;;;;5029314;28;20040;-49
2022/06/05 08:19:00;;;;;;;4.45;2.97;;;26.40;74.10;;;;;;5029371;28;20041;-48
2022/06/05 08:21:26;;;;;;;6.38;4.00;;;27.70;70.60;;;;;;5029113;28;20049;-50
2022/06/05 08:23:52;;;;;;;7.00;3.28;;;28.70;64.20;;;;;;5028353;28;20035;-49
2022/06/05 08:26:18;;;;;;;8.02;3.20;;;29.00;62.00;;;;;;5030695;28;20026;-51
2022/06/05 08:28:43;;;;;;;4.90;2.80;;;29.40;60.10;;;;;;5031085;28;20072;-51
2022/06/05 08:31:09;;;;;;;3.25;2.92;;;30.10;57.60;;;;;;5030125;28;20032;-49
2022/06/05 08:33:35;;;;;;;4.68;3.00;;;30.60;56.80;;;;;;5030446;28;20429;-50
2022/06/05 08:36:00;;;;;;;4.60;3.22;;;30.20;55.50;;;;;;5030726;28;20026;-48
2022/06/05 08:41:29;;;;;;;3.95;3.00;;;31.30;53.40;;;;;;5009699;28;20029;-49
2022/06/05 08:44:13;;;;;;;3.78;3.03;;;31.90;52.70;;;;;;5010440;28;20423;-49
2022/06/05 08:46:48;;;;;;;3.38;2.67;;;32.80;50.40;;;;;;5010786;28;20026;-51
2022/06/05 08:49:52;;;;;;;5.32;2.92;;;32.50;50.20;;;;;;5009658;28;20415;-50
2022/06/05 08:52:52;;;;;;;4.18;3.25;;;32.90;49.90;;;;;;5009852;28;20339;-51
2022/06/05 08:55:38;;;;;;;3.95;2.72;;;32.40;49.30;;;;;;5008825;28;20021;-50
2022/06/05 08:58:25;;;;;;;4.03;3.22;;;32.10;49.70;;;;;;5008995;28;20018;-49
2022/06/05 09:01:00;;;;;;;5.68;3.17;;;31.50;51.00;;;;;;5009417;28;20029;-48
2022/06/05 09:03:47;;;;;;;5.55;3.35;;;31.20;52.30;;;;;;5022447;28;20263;-51
2022/06/05 09:06:19;;;;;;;5.20;3.05;;;31.30;52.60;;;;;;5026504;28;20394;-49
2022/06/05 09:08:49;;;;;;;4.57;3.63;;;30.90;51.30;;;;;;5008283;28;20040;-51
2022/06/05 09:11:23;;;;;;;7.07;3.17;;;30.50;51.20;;;;;;5009603;28;20025;-49
2022/06/05 09:14:01;;;;;;;3.60;3.20;;;31.00;51.10;;;;;;5009855;28;20285;-50
2022/06/05 09:16:30;;;;;;;5.35;3.10;;;31.30;51.70;;;;;;5010119;28;20497;-48
2022/06/05 09:18:57;;;;;;;5.15;3.22;;;31.50;51.70;;;;;;5010074;28;20293;-51
2022/06/05 09:21:28;;;;;;;3.60;2.85;;;32.10;51.90;;;;;;5008832;28;20391;-52
2022/06/05 09:24:11;;;;;;;3.33;2.90;;;32.70;49.90;;;;;;5013743;28;20037;-50
2022/06/05 09:26:44;;;;;;;6.82;3.03;;;33.50;49.50;;;;;;5027154;28;20021;-51
2022/06/05 09:29:26;;;;;;;5.28;2.97;;;34.30;48.60;;;;;;5029559;28;20096;-51
2022/06/05 09:32:06;;;;;;;3.90;3.17;;;34.80;47.30;;;;;;5029172;28;20029;-52
2022/06/05 09:34:38;;;;;;;;;;;35.60;46.30;;;;;;5029844;28;20455;-49
2022/06/05 09:37:19;;;;;;;3.17;2.88;;;35.80;44.20;;;;;;5021845;28;19906;-51
2022/06/05 09:39:56;;;;;;;4.90;3.20;;;35.20;44.10;;;;;;5007221;28;20076;-51
2022/06/05 09:42:43;;;;;;;3.13;2.80;;;34.70;44.40;;;;;;5009164;28;20490;-52
2022/06/05 09:45:30;;;;;;;5.10;3.35;;;34.70;44.50;;;;;;5008037;28;20037;-50
2022/06/05 09:48:26;;;;;;;4.97;2.95;;;34.60;45.40;;;;;;5009738;28;20113;-51
2022/06/05 09:50:52;;;;;;;3.50;3.20;;;33.90;45.00;;;;;;5009078;28;20368;-50
2022/06/05 09:53:34;;;;;;;4.32;3.15;;;33.70;45.20;;;;;;5009379;28;20037;-49
2022/06/05 09:56:16;;;;;;;5.85;3.22;;;34.30;45.70;;;;;;5008041;28;20034;-48
2022/06/05 09:59:12;;;;;;;4.60;3.30;;;34.70;43.90;;;;;;5009329;28;20495;-48
2022/06/05 10:01:58;;;;;;;6.85;2.97;;;34.50;44.30;;;;;;5008422;28;20105;-50
2022/06/05 10:04:29;;;;;;;5.82;3.70;;;33.70;44.90;;;;;;5014980;28;20033;-50
2022/06/05 10:07:05;;;;;;;3.72;3.33;;;33.10;46.20;;;;;;5022452;28;20026;-48
2022/06/05 10:09:33;;;;;;;4.47;3.60;;;32.00;46.40;;;;;;5007161;28;20029;-50
2022/06/05 10:12:07;;;;;;;4.53;3.78;;;31.40;47.60;;;;;;5009324;28;20439;-49
2022/06/05 10:14:59;;;;;;;3.58;3.17;;;31.10;48.10;;;;;;5009393;28;20459;-50
2022/06/05 10:17:30;;;;;;;3.97;3.50;;;30.60;48.80;;;;;;5009586;28;20037;-50
2022/06/05 10:20:12;;;;;;;4.10;3.53;;;30.50;49.10;;;;;;5008536;28;20076;-51
2022/06/05 10:22:55;;;;;;;4.32;3.78;;;30.70;49.30;;;;;;5009007;28;20076;-51
2022/06/05 10:25:36;;;;;;;4.15;3.22;;;31.50;47.00;;;;;;5008845;28;20030;-50
2022/06/05 10:28:18;;;;;;;4.82;3.70;;;32.10;47.40;;;;;;5009478;28;20491;-50
2022/06/05 10:30:57;;;;;;;6.43;3.22;;;33.40;46.80;;;;;;5008497;28;20658;-51
2022/06/05 10:33:32;;;;;;;5.05;2.88;;;34.30;45.30;;;;;;5009008;28;20484;-51
2022/06/05 10:36:33;;;;;;;7.63;3.58;;;35.00;45.60;;;;;;5026408;28;20601;-50
2022/06/05 10:39:35;;;;;;;7.85;3.45;;;35.30;44.20;;;;;;5009220;28;20067;-51
2022/06/05 10:42:22;;;;;;;3.70;2.85;;;35.30;44.00;;;;;;5006441;28;20029;-51
2022/06/05 10:45:00;;;;;;;5.75;3.25;;;35.40;43.10;;;;;;5024641;28;20036;-49
2022/06/05 10:47:33;;;;;;;3.15;2.83;;;35.60;43.30;;;;;;5027850;28;20033;-49
2022/06/05 10:50:10;;;;;;;6.55;3.50;;;36.50;42.60;;;;;;5019671;28;20299;-51
2022/06/05 10:53:02;;;;;;;3.95;2.83;;;36.60;41.40;;;;;;5027588;28;20045;-48
2022/06/05 10:56:00;;;;;;;5.30;2.88;;;36.70;42.30;;;;;;4982439;28;20064;-49
2022/06/05 10:58:55;;;;;;;3.72;3.42;;;36.20;42.80;;;;;;5027525;28;20121;-50
2022/06/05 11:02:01;;;;;;;6.80;3.83;;;36.40;42.50;;;;;;5026011;28;20451;-50
2022/06/05 11:04:40;;;;;;;6.70;3.13;;;36.80;43.20;;;;;;5024378;28;20041;-49
2022/06/05 11:07:36;;;;;;;3.95;2.83;;;36.30;41.70;;;;;;5028352;28;20064;-48
2022/06/05 11:10:17;;;;;;;4.40;2.58;;;35.90;42.10;;;;;;5003487;28;20030;-51
2022/06/05 11:16:01;;;;;;;4.53;3.40;;;35.70;41.60;;;;;;5022589;28;20044;-50
2022/06/05 11:18:35;;;;;;;5.47;3.20;;;34.10;43.00;;;;;;5032092;28;20029;-48
2022/06/05 11:21:02;;;;;;;4.90;3.97;;;34.30;43.90;;;;;;5030828;28;20030;-49
2022/06/05 11:23:37;;;;;;;7.07;3.40;;;33.90;45.60;;;;;;5024375;28;20029;-51
2022/06/05 11:26:17;;;;;;;5.95;3.80;;;33.50;44.90;;;;;;5031682;28;20083;-48
2022/06/05 11:28:47;;;;;;;;;;;33.70;44.80;;;;;;5032449;28;20021;-48
2022/06/05 11:31:49;;;;;;;3.47;3.17;;;34.30;45.10;;;;;;5031445;28;20152;-51
2022/06/05 11:34:21;;;;;;;7.32;4.00;;;34.40;45.20;;;;;;5031771;28;20034;-48
2022/06/05 11:36:55;;;;;;;4.43;3.28;;;34.20;44.10;;;;;;5031599;28;20061;-49
2022/06/05 11:39:29;;;;;;;5.85;3.60;;;33.70;45.00;;;;;;5031395;28;20496;-50
2022/06/05 11:42:04;;;;;;;7.38;3.45;;;33.90;45.80;;;;;;5031322;28;20036;-51
2022/06/05 11:44:51;;;;;;;4.15;3.40;;;33.80;46.60;;;;;;5031454;28;20091;-51
2022/06/05 11:47:38;;;;;;;4.03;3.15;;;33.90;45.90;;;;;;5031450;28;20242;-48
2022/06/05 11:50:21;;;;;;;3.92;3.50;;;34.40;45.10;;;;;;5042881;28;20021;-50
2022/06/05 11:53:03;;;;;;;4.13;3.17;;;34.40;44.30;;;;;;5025482;28;20026;-51
2022/06/05 11:55:40;;;;;;;4.97;3.28;;;33.60;44.60;;;;;;5025560;28;20564;-51
2022/06/05 11:58:15;;;;;;;4.45;3.60;;;33.20;45.20;;;;;;5026589;28;20072;-49
2022/06/05 12:00:50;;;;;;;8.20;3.60;;;32.80;45.90;;;;;;5030039;28;20128;-47
2022/06/05 12:03:36;;;;;;;4.40;3.40;;;32.70;46.90;;;;;;5030058;28;20025;-47
2022/06/05 12:06:21;;;;;;;4.10;3.10;;;32.80;46.00;;;;;;5030536;28;20033;-48
2022/06/05 12:08:51;;;;;;;5.72;3.30;;;32.30;46.90;;;;;;5030214;28;20021;-47
2022/06/05 12:11:23;;;;;;;6.32;4.07;;;32.20;47.20;;;;;;5028207;28;20116;-48
2022/06/05 12:14:17;;;;;;;3.15;2.95;;;31.50;47.40;;;;;;5030573;28;20269;-48
2022/06/05 12:17:01;;;;;;;7.75;3.50;;;31.50;48.10;;;;;;5030530;28;20067;-48
2022/06/05 12:19:46;;;;;;;6.95;3.40;;;31.70;47.90;;;;;;5029332;28;20021;-49
2022/06/05 12:22:28;;;;;;;5.15;3.30;;;31.80;48.00;;;;;;5030548;28;20021;-49
2022/06/05 12:25:20;;;;;;;5.47;3.33;;;31.90;48.20;;;;;;5009119;28;20033;-48
2022/06/05 12:28:09;;;;;;;3.70;3.40;;;31.90;46.90;;;;;;5008957;28;20307;-53
2022/06/05 12:31:03;;;;;;;3.85;3.00;;;31.90;47.40;;;;;;5009612;28;20026;-50
2022/06/05 12:34:04;;;;;;;4.10;3.35;;;31.90;48.00;;;;;;5008430;28;20455;-47
2022/06/05 12:36:39;;;;;;;3.95;3.38;;;32.00;47.50;;;;;;5022294;28;20487;-48
2022/06/05 12:39:22;;;;;;;4.50;3.70;;;31.90;47.90;;;;;;5030199;28;20044;-49
2022/06/05 12:42:21;;;;;;;3.95;3.55;;;31.90;48.40;;;;;;5010469;28;20077;-50
2022/06/05 12:44:53;;;;;;;4.00;3.63;;;31.90;47.50;;;;;;5015485;28;20034;-48
2022/06/05 12:47:27;;;;;;;5.75;3.08;;;31.80;47.60;;;;;;5030614;28;20024;-49
2022/06/05 12:49:56;;;;;;;4.95;2.90;;;31.70;47.10;;;;;;5025965;28;20063;-48
2022/06/05 12:52:38;;;;;;;4.55;3.22;;;31.70;46.10;;;;;;5029273;28;20026;-47
2022/06/05 12:55:16;;;;;;;3.65;3.10;;;31.30;47.80;;;;;;5027996;28;20029;-47
2022/06/05 12:57:44;;;;;;;6.40;3.20;;;31.20;47.40;;;;;;5028099;28;20021;-48
2022/06/05 13:00:34;;;;;;;3.47;3.17;;;31.30;47.40;;;;;;5029150;28;20040;-48
2022/06/05 13:03:22;;;;;;;4.03;3.20;;;30.80;47.80;;;;;;5027447;28;20036;-50
2022/06/05 13:05:57;;;;;;;6.22;3.80;;;31.00;48.10;;;;;;5036606;28;20068;-47
2022/06/05 13:08:45;;;;;;;3.58;3.25;;;30.70;49.00;;;;;;5049833;28;20025;-47
2022/06/05 13:11:17;;;;;;;5.38;3.80;;;30.70;47.40;;;;;;5047485;28;20304;-50
2022/06/05 13:14:25;;;;;;;4.00;3.60;;;30.60;48.30;;;;;;5049287;28;20431;-49
2022/06/05 13:16:57;;;;;;;5.25;3.42;;;30.60;48.60;;;;;;5049280;28;20028;-49
2022/06/05 13:19:51;;;;;;;4.90;3.42;;;30.70;49.10;;;;;;5048384;28;20021;-49
2022/06/05 13:22:54;;;;;;;3.80;3.38;;;30.70;48.00;;;;;;5023179;28;20566;-50
2022/06/05 13:25:27;;;;;;;6.07;3.67;;;30.70;50.00;;;;;;5029556;28;20025;-50
2022/06/05 13:28:15;;;;;;;4.45;3.58;;;30.60;50.50;;;;;;5026233;28;20355;-50
2022/06/05 13:30:49;;;;;;;3.95;3.50;;;30.60;50.30;;;;;;5008076;28;20061;-49